createdAt,value
2019-02-09T00:00:18.833Z,6.46
2019-02-09T00:01:18.746Z,6.37
2019-02-09T00:02:18.658Z,6.41
2019-02-09T00:03:18.599Z,6.48
2019-02-09T00:04:18.497Z,6.41
2019-02-09T00:05:18.410Z,6.44
2019-02-09T00:06:18.321Z,6.43
2019-02-09T00:07:18.234Z,6.46
2019-02-09T00:08:18.148Z,6.40
2019-02-09T00:09:18.071Z,6.43
2019-02-09T00:10:17.988Z,6.40
2019-02-09T00:11:17.905Z,6.43
2019-02-09T00:12:17.809Z,6.40
2019-02-09T00:13:17.722Z,6.41
2019-02-09T00:14:17.635Z,6.44
2019-02-09T00:15:17.572Z,6.56
2019-02-09T00:16:17.473Z,6.52
2019-02-09T00:17:17.389Z,6.51
2019-02-09T00:18:17.300Z,6.52
2019-02-09T00:19:17.210Z,6.55
2019-02-09T00:20:17.125Z,6.44
2019-02-09T00:21:17.048Z,6.49
2019-02-09T00:22:16.961Z,6.52
2019-02-09T00:23:16.875Z,6.54
2019-02-09T00:24:16.785Z,6.44
2019-02-09T00:25:16.701Z,6.46
2019-02-09T00:26:16.612Z,6.49
2019-02-09T00:27:16.535Z,6.52
2019-02-09T00:28:16.449Z,6.44
2019-02-09T00:29:16.376Z,6.59
2019-02-09T00:30:16.275Z,6.46
2019-02-09T00:31:16.199Z,6.40
2019-02-09T00:32:16.111Z,6.48
2019-02-09T00:33:16.025Z,6.43
2019-02-09T00:34:15.937Z,6.43
2019-02-09T00:35:15.850Z,6.51
2019-02-09T00:36:15.761Z,6.51
2019-02-09T00:37:15.683Z,6.54
2019-02-09T00:38:15.600Z,6.52
2019-02-09T00:39:15.512Z,6.54
2019-02-09T00:40:15.425Z,6.59
2019-02-09T00:41:15.337Z,6.59
2019-02-09T00:42:15.251Z,6.54
2019-02-09T00:43:15.163Z,6.54
2019-02-09T00:44:15.087Z,6.61
2019-02-09T00:45:15.010Z,6.58
2019-02-09T00:46:14.913Z,6.59
2019-02-09T00:47:14.826Z,6.66
2019-02-09T00:48:14.738Z,6.70
2019-02-09T00:49:14.666Z,6.81
2019-02-09T00:50:14.576Z,6.76
2019-02-09T00:51:14.489Z,6.79
2019-02-09T00:52:14.402Z,6.80
2019-02-09T00:53:14.313Z,6.79
2019-02-09T00:54:14.226Z,6.84
2019-02-09T00:55:14.153Z,6.79
2019-02-09T00:56:14.064Z,6.81
2019-02-09T00:57:13.976Z,6.74
2019-02-09T00:58:13.901Z,6.71
2019-02-09T00:59:13.803Z,6.73
2019-02-09T01:00:13.714Z,6.70
2019-02-09T01:01:13.639Z,6.73
2019-02-09T01:02:13.553Z,6.71
2019-02-09T01:03:13.464Z,6.71
2019-02-09T01:04:13.378Z,6.67
2019-02-09T01:05:13.290Z,6.66
2019-02-09T01:06:13.215Z,6.71
2019-02-09T01:07:13.129Z,6.80
2019-02-09T01:08:13.040Z,6.79
2019-02-09T01:09:12.952Z,6.77
2019-02-09T01:10:12.865Z,6.80
2019-02-09T01:11:12.778Z,6.73
2019-02-09T01:12:14.225Z,6.62
2019-02-09T01:13:12.865Z,6.66
2019-02-09T01:14:12.529Z,6.58
2019-02-09T01:15:12.454Z,6.66
2019-02-09T01:16:12.356Z,6.71
2019-02-09T01:17:12.267Z,6.66
2019-02-09T01:18:12.190Z,6.67
2019-02-09T01:19:12.105Z,6.66
2019-02-09T01:20:12.017Z,6.69
2019-02-09T01:21:11.930Z,6.59
2019-02-09T01:22:11.842Z,6.59
2019-02-09T01:23:11.768Z,6.54
2019-02-09T01:24:11.680Z,6.55
2019-02-09T01:25:11.591Z,6.56
2019-02-09T01:26:11.505Z,6.56
2019-02-09T01:27:11.417Z,6.55
2019-02-09T01:28:11.342Z,6.49
2019-02-09T01:29:11.257Z,6.55
2019-02-09T01:30:11.179Z,6.54
2019-02-09T01:31:11.087Z,6.58
2019-02-09T01:32:10.992Z,6.51
2019-02-09T01:33:10.907Z,6.61
2019-02-09T01:34:10.818Z,6.51
2019-02-09T01:35:10.742Z,6.40
2019-02-09T01:36:10.658Z,6.48
2019-02-09T01:37:10.569Z,6.52
2019-02-09T01:38:10.481Z,6.41
2019-02-09T01:39:10.393Z,6.38
2019-02-09T01:40:10.306Z,6.41
2019-02-09T01:41:10.233Z,6.41
2019-02-09T01:42:10.143Z,6.49
2019-02-09T01:43:10.065Z,6.36
2019-02-09T01:44:09.969Z,6.33
2019-02-09T01:45:09.882Z,6.28
2019-02-09T01:46:09.795Z,6.37
2019-02-09T01:47:09.732Z,6.31
2019-02-09T01:48:09.633Z,6.37
2019-02-09T01:49:09.544Z,6.40
2019-02-09T01:50:09.461Z,6.37
2019-02-09T01:51:09.369Z,6.40
2019-02-09T01:52:09.283Z,6.34
2019-02-09T01:53:09.208Z,6.27
2019-02-09T01:54:09.132Z,6.30
2019-02-09T01:55:09.033Z,6.22
2019-02-09T01:56:08.944Z,6.22
2019-02-09T01:57:08.864Z,6.19
2019-02-09T01:58:08.783Z,6.18
2019-02-09T01:59:08.701Z,6.25
2019-02-09T02:00:10.553Z,6.28
2019-02-09T02:01:08.533Z,6.22
2019-02-09T02:02:08.434Z,6.25
2019-02-09T02:03:08.346Z,6.25
2019-02-09T02:04:08.270Z,6.30
2019-02-09T02:05:08.184Z,6.25
2019-02-09T02:06:08.095Z,6.19
2019-02-09T02:07:08.010Z,6.22
2019-02-09T02:08:07.934Z,6.21
2019-02-09T02:09:07.834Z,6.27
2019-02-09T02:10:07.774Z,6.27
2019-02-09T02:11:07.674Z,6.25
2019-02-09T02:12:07.584Z,6.27
2019-02-09T02:13:07.496Z,6.28
2019-02-09T02:14:07.410Z,6.30
2019-02-09T02:15:07.323Z,6.25
2019-02-09T02:16:07.236Z,6.25
2019-02-09T02:17:07.160Z,6.14
2019-02-09T02:18:07.072Z,6.15
2019-02-09T02:19:06.986Z,6.17
2019-02-09T02:20:06.897Z,6.15
2019-02-09T02:21:06.811Z,6.15
2019-02-09T02:22:06.723Z,6.15
2019-02-09T02:23:06.659Z,6.15
2019-02-09T02:24:06.561Z,6.21
2019-02-09T02:25:06.475Z,6.15
2019-02-09T02:26:06.388Z,6.25
2019-02-09T02:27:06.297Z,6.17
2019-02-09T02:28:06.224Z,6.28
2019-02-09T02:29:06.135Z,6.18
2019-02-09T02:30:06.050Z,6.21
2019-02-09T02:31:05.962Z,6.27
2019-02-09T02:32:05.873Z,6.22
2019-02-09T02:33:05.791Z,6.22
2019-02-09T02:34:05.699Z,6.28
2019-02-09T02:35:05.625Z,6.28
2019-02-09T02:36:05.538Z,6.22
2019-02-09T02:37:05.449Z,6.27
2019-02-09T02:38:05.365Z,6.19
2019-02-09T02:39:05.275Z,6.21
2019-02-09T02:40:05.189Z,6.28
2019-02-09T02:41:05.112Z,6.30
2019-02-09T02:42:05.037Z,6.22
2019-02-09T02:43:04.989Z,6.22
2019-02-09T02:44:04.851Z,6.30
2019-02-09T02:45:04.762Z,6.30
2019-02-09T02:46:04.682Z,6.33
2019-02-09T02:47:04.600Z,6.30
2019-02-09T02:48:04.512Z,6.33
2019-02-09T02:49:04.444Z,6.28
2019-02-09T02:50:04.339Z,6.36
2019-02-09T02:51:04.253Z,6.37
2019-02-09T02:52:04.176Z,6.34
2019-02-09T02:53:04.090Z,6.40
2019-02-09T02:54:04.002Z,6.33
2019-02-09T02:55:03.914Z,6.43
2019-02-09T02:56:03.838Z,6.44
2019-02-09T02:57:03.741Z,6.34
2019-02-09T02:58:03.664Z,6.34
2019-02-09T02:59:03.589Z,6.41
2019-02-09T03:00:03.489Z,6.28
2019-02-09T03:01:03.406Z,6.49
2019-02-09T03:02:03.315Z,6.40
2019-02-09T03:03:03.239Z,6.41
2019-02-09T03:04:03.151Z,6.52
2019-02-09T03:05:03.065Z,6.40
2019-02-09T03:06:02.991Z,6.48
2019-02-09T03:07:02.890Z,6.52
2019-02-09T03:08:02.806Z,6.44
2019-02-09T03:09:02.726Z,6.48
2019-02-09T03:10:02.641Z,6.49
2019-02-09T03:11:02.553Z,6.59
2019-02-09T03:12:02.465Z,6.55
2019-02-09T03:13:02.380Z,6.59
2019-02-09T03:14:02.291Z,6.56
2019-02-09T03:15:02.216Z,6.56
2019-02-09T03:16:02.127Z,6.58
2019-02-09T03:17:02.045Z,6.61
2019-02-09T03:18:02.213Z,6.62
2019-02-09T03:19:01.866Z,6.66
2019-02-09T03:20:01.780Z,6.64
2019-02-09T03:21:01.717Z,6.66
2019-02-09T03:22:01.618Z,6.73
2019-02-09T03:23:01.530Z,6.77
2019-02-09T03:24:01.446Z,6.74
2019-02-09T03:25:01.354Z,6.76
2019-02-09T03:26:01.268Z,6.85
2019-02-09T03:27:01.197Z,6.81
2019-02-09T03:28:01.103Z,6.77
2019-02-09T03:29:01.019Z,6.79
2019-02-09T03:30:00.930Z,6.84
2019-02-09T03:31:00.862Z,6.80
2019-02-09T03:32:00.772Z,6.80
2019-02-09T03:33:00.681Z,6.81
2019-02-09T03:34:00.595Z,6.77
2019-02-09T03:35:00.519Z,6.87
2019-02-09T03:36:00.417Z,6.87
2019-02-09T03:37:00.336Z,6.84
2019-02-09T03:38:00.247Z,6.85
2019-02-09T03:39:00.168Z,6.85
2019-02-09T03:40:00.302Z,6.84
2019-02-09T03:40:59.994Z,6.80
2019-02-09T03:41:59.905Z,6.87
2019-02-09T03:43:00.119Z,6.87
2019-02-09T03:43:59.733Z,6.99
2019-02-09T03:44:59.668Z,6.98
2019-02-09T03:45:59.569Z,7.03
2019-02-09T03:46:59.482Z,7.02
2019-02-09T03:47:59.398Z,6.97
2019-02-09T03:48:59.310Z,6.92
2019-02-09T03:49:59.233Z,7.03
2019-02-09T03:50:59.148Z,6.97
2019-02-09T03:51:59.059Z,6.98
2019-02-09T03:52:58.974Z,7.03
2019-02-09T03:53:58.882Z,7.03
2019-02-09T03:54:58.807Z,6.99
2019-02-09T03:55:58.720Z,7.05
2019-02-09T03:56:58.632Z,7.03
2019-02-09T03:57:58.546Z,6.97
2019-02-09T03:58:58.460Z,7.02
2019-02-09T03:59:58.379Z,7.15
2019-02-09T04:00:58.296Z,6.97
2019-02-09T04:01:58.208Z,7.10
2019-02-09T04:02:58.121Z,7.15
2019-02-09T04:03:58.045Z,7.15
2019-02-09T04:04:57.945Z,7.16
2019-02-09T04:05:57.874Z,7.21
2019-02-09T04:06:57.783Z,7.24
2019-02-09T04:07:57.776Z,7.21
2019-02-09T04:08:57.609Z,7.28
2019-02-09T04:09:57.521Z,7.16
2019-02-09T04:10:57.446Z,7.12
2019-02-09T04:11:57.359Z,7.25
2019-02-09T04:12:57.275Z,7.30
2019-02-09T04:13:57.184Z,7.34
2019-02-09T04:14:57.096Z,7.23
2019-02-09T04:15:57.027Z,7.28
2019-02-09T04:16:56.934Z,7.27
2019-02-09T04:17:56.847Z,7.31
2019-02-09T04:18:56.774Z,7.39
2019-02-09T04:19:56.674Z,7.45
2019-02-09T04:20:56.598Z,7.40
2019-02-09T04:21:56.510Z,7.46
2019-02-09T04:22:56.424Z,7.55
2019-02-09T04:23:56.335Z,7.46
2019-02-09T04:24:56.248Z,7.48
2019-02-09T04:25:56.173Z,7.46
2019-02-09T04:26:56.085Z,7.42
2019-02-09T04:27:55.999Z,7.39
2019-02-09T04:28:55.910Z,7.45
2019-02-09T04:29:55.896Z,7.43
2019-02-09T04:31:05.003Z,7.37
2019-02-09T04:31:55.661Z,7.49
2019-02-09T04:32:55.575Z,7.48
2019-02-09T04:33:55.485Z,7.50
2019-02-09T04:34:55.412Z,7.50
2019-02-09T04:35:55.326Z,7.53
2019-02-09T04:36:55.237Z,7.50
2019-02-09T04:37:55.150Z,7.45
2019-02-09T04:38:55.062Z,7.50
2019-02-09T04:39:54.988Z,7.57
2019-02-09T04:40:54.901Z,7.63
2019-02-09T04:41:54.812Z,7.60
2019-02-09T04:42:54.737Z,7.58
2019-02-09T04:43:54.643Z,7.60
2019-02-09T04:44:54.564Z,7.60
2019-02-09T04:45:54.475Z,7.63
2019-02-09T04:46:54.387Z,7.61
2019-02-09T04:47:54.300Z,7.63
2019-02-09T04:48:54.226Z,7.68
2019-02-09T04:49:54.137Z,7.63
2019-02-09T04:50:54.051Z,7.63
2019-02-09T04:51:54.040Z,7.74
2019-02-09T04:52:54.126Z,7.69
2019-02-09T04:53:53.801Z,7.71
2019-02-09T04:54:53.713Z,7.77
2019-02-09T04:55:53.637Z,7.64
2019-02-09T04:56:53.538Z,7.69
2019-02-09T04:57:53.482Z,7.69
2019-02-09T04:58:53.377Z,7.74
2019-02-09T04:59:53.288Z,7.74
2019-02-09T05:00:53.202Z,7.68
2019-02-09T05:01:53.116Z,7.82
2019-02-09T05:02:53.042Z,7.69
2019-02-09T05:03:52.952Z,7.77
2019-02-09T05:04:52.876Z,7.71
2019-02-09T05:05:52.777Z,7.72
2019-02-09T05:06:52.703Z,7.72
2019-02-09T05:07:52.614Z,7.74
2019-02-09T05:08:52.527Z,7.74
2019-02-09T05:09:52.440Z,7.74
2019-02-09T05:10:52.376Z,7.79
2019-02-09T05:11:52.278Z,7.82
2019-02-09T05:12:52.194Z,7.72
2019-02-09T05:13:52.103Z,7.71
2019-02-09T05:14:52.017Z,7.79
2019-02-09T05:15:51.941Z,7.71
2019-02-09T05:16:51.855Z,7.83
2019-02-09T05:17:51.770Z,7.71
2019-02-09T05:18:51.679Z,7.95
2019-02-09T05:19:51.602Z,7.82
2019-02-09T05:20:51.516Z,7.83
2019-02-09T05:21:51.430Z,7.83
2019-02-09T05:22:51.345Z,7.82
2019-02-09T05:23:51.270Z,7.83
2019-02-09T05:24:51.178Z,7.75
2019-02-09T05:25:51.090Z,7.85
2019-02-09T05:26:51.004Z,7.82
2019-02-09T05:27:50.918Z,7.92
2019-02-09T05:28:50.845Z,7.90
2019-02-09T05:29:50.755Z,7.90
2019-02-09T05:30:50.666Z,7.85
2019-02-09T05:31:50.580Z,7.89
2019-02-09T05:32:50.505Z,7.86
2019-02-09T05:33:50.417Z,7.89
2019-02-09T05:34:50.330Z,7.82
2019-02-09T05:35:50.244Z,7.92
2019-02-09T05:36:50.167Z,7.92
2019-02-09T05:37:50.147Z,7.77
2019-02-09T05:38:49.992Z,7.75
2019-02-09T05:39:49.908Z,7.79
2019-02-09T05:40:49.835Z,7.82
2019-02-09T05:41:49.742Z,7.82
2019-02-09T05:42:49.655Z,7.90
2019-02-09T05:43:49.568Z,7.89
2019-02-09T05:44:49.493Z,7.89
2019-02-09T05:45:49.406Z,7.85
2019-02-09T05:46:49.317Z,7.93
2019-02-09T05:47:49.382Z,7.82
2019-02-09T05:48:49.158Z,7.79
2019-02-09T05:49:49.070Z,7.74
2019-02-09T05:50:48.983Z,7.74
2019-02-09T05:51:48.893Z,7.75
2019-02-09T05:52:48.826Z,7.80
2019-02-09T05:53:48.732Z,7.80
2019-02-09T05:54:48.644Z,7.72
2019-02-09T05:55:48.563Z,7.71
2019-02-09T05:56:48.473Z,7.79
2019-02-09T05:57:48.395Z,7.71
2019-02-09T05:58:48.322Z,7.72
2019-02-09T05:59:48.220Z,7.69
2019-02-09T06:00:48.132Z,7.64
2019-02-09T06:01:48.057Z,7.69
2019-02-09T06:02:47.976Z,7.68
2019-02-09T06:03:47.886Z,7.69
2019-02-09T06:04:47.794Z,7.60
2019-02-09T06:05:47.719Z,7.60
2019-02-09T06:06:47.634Z,7.53
2019-02-09T06:07:47.557Z,7.48
2019-02-09T06:08:47.459Z,7.50
2019-02-09T06:09:47.392Z,7.35
2019-02-09T06:10:47.300Z,7.28
2019-02-09T06:11:47.209Z,7.12
2019-02-09T06:12:47.124Z,7.05
2019-02-09T06:13:47.035Z,6.97
2019-02-09T06:14:46.959Z,6.74
2019-02-09T06:15:46.873Z,6.58
2019-02-09T06:16:46.790Z,6.64
2019-02-09T06:17:46.695Z,6.51
2019-02-09T06:18:46.611Z,6.41
2019-02-09T06:19:46.534Z,6.25
2019-02-09T06:20:46.459Z,6.30
2019-02-09T06:21:46.359Z,6.25
2019-02-09T06:22:46.273Z,6.19
2019-02-09T06:23:46.190Z,6.18
2019-02-09T06:24:46.113Z,6.15
2019-02-09T06:25:46.024Z,6.17
2019-02-09T06:26:45.939Z,6.14
2019-02-09T06:27:45.847Z,6.22
2019-02-09T06:28:45.762Z,6.27
2019-02-09T06:29:45.684Z,6.22
2019-02-09T06:30:45.599Z,6.22
2019-02-09T06:31:45.511Z,6.25
2019-02-09T06:32:45.465Z,6.34
2019-02-09T06:33:45.338Z,6.21
2019-02-09T06:34:45.248Z,6.36
2019-02-09T06:35:45.163Z,6.36
2019-02-09T06:36:45.074Z,6.25
2019-02-09T06:37:45.249Z,6.30
2019-02-09T06:38:44.911Z,6.30
2019-02-09T06:39:44.824Z,6.30
2019-02-09T06:40:44.738Z,6.19
2019-02-09T06:41:44.649Z,6.25
2019-02-09T06:42:44.561Z,6.19
2019-02-09T06:43:44.475Z,6.19
2019-02-09T06:44:44.398Z,6.25
2019-02-09T06:45:44.312Z,6.21
2019-02-09T06:46:44.244Z,6.21
2019-02-09T06:47:44.137Z,6.51
2019-02-09T06:48:44.049Z,6.44
2019-02-09T06:49:43.963Z,6.43
2019-02-09T06:50:43.887Z,6.52
2019-02-09T06:51:43.812Z,6.51
2019-02-09T06:52:43.713Z,6.59
2019-02-09T06:53:43.624Z,6.62
2019-02-09T06:54:43.540Z,6.56
2019-02-09T06:55:43.452Z,6.67
2019-02-09T06:56:43.369Z,6.69
2019-02-09T06:57:43.288Z,6.67
2019-02-09T06:58:43.202Z,6.62
2019-02-09T06:59:43.113Z,6.70
2019-02-09T07:00:43.025Z,6.71
2019-02-09T07:01:48.529Z,6.77
2019-02-09T07:02:42.852Z,6.58
2019-02-09T07:03:42.775Z,6.66
2019-02-09T07:04:42.690Z,6.54
2019-02-09T07:05:42.613Z,6.55
2019-02-09T07:06:42.514Z,6.51
2019-02-09T07:07:42.426Z,6.44
2019-02-09T07:08:42.340Z,6.46
2019-02-09T07:09:42.256Z,6.48
2019-02-09T07:10:42.176Z,6.49
2019-02-09T07:11:42.090Z,6.58
2019-02-09T07:12:42.014Z,6.58
2019-02-09T07:13:41.915Z,6.44
2019-02-09T07:14:41.826Z,6.59
2019-02-09T07:15:41.740Z,6.52
2019-02-09T07:16:41.664Z,6.54
2019-02-09T07:17:41.577Z,6.58
2019-02-09T07:18:41.490Z,6.67
2019-02-09T07:19:41.416Z,6.67
2019-02-09T07:20:41.315Z,6.79
2019-02-09T07:21:41.227Z,6.73
2019-02-09T07:22:41.152Z,6.66
2019-02-09T07:23:41.066Z,6.59
2019-02-09T07:24:40.981Z,6.54
2019-02-09T07:25:40.894Z,6.51
2019-02-09T07:26:40.804Z,6.41
2019-02-09T07:27:40.716Z,6.30
2019-02-09T07:28:40.629Z,6.33
2019-02-09T07:29:40.568Z,6.33
2019-02-09T07:30:40.501Z,6.25
2019-02-09T07:31:40.378Z,6.30
2019-02-09T07:32:40.293Z,6.36
2019-02-09T07:33:40.203Z,6.34
2019-02-09T07:34:40.117Z,6.36
2019-02-09T07:35:40.030Z,6.43
2019-02-09T07:36:39.955Z,6.46
2019-02-09T07:37:40.117Z,6.52
2019-02-09T07:38:39.779Z,6.40
2019-02-09T07:39:39.693Z,6.44
2019-02-09T07:40:39.604Z,6.38
2019-02-09T07:41:39.519Z,6.41
2019-02-09T07:42:39.442Z,6.43
2019-02-09T07:43:39.355Z,6.48
2019-02-09T07:44:39.271Z,6.43
2019-02-09T07:45:39.181Z,6.43
2019-02-09T07:46:39.093Z,6.43
2019-02-09T07:47:39.005Z,6.37
2019-02-09T07:48:38.919Z,6.31
2019-02-09T07:49:38.845Z,6.49
2019-02-09T07:50:38.755Z,6.51
2019-02-09T07:51:38.668Z,6.46
2019-02-09T07:52:38.580Z,6.52
2019-02-09T07:53:38.493Z,6.52
2019-02-09T07:54:38.406Z,6.54
2019-02-09T07:55:38.343Z,6.62
2019-02-09T07:56:38.244Z,6.55
2019-02-09T07:57:38.156Z,6.74
2019-02-09T07:58:38.072Z,6.67
2019-02-09T07:59:37.982Z,6.74
2019-02-09T08:00:37.894Z,6.66
2019-02-09T08:01:37.811Z,6.73
2019-02-09T08:02:37.746Z,6.70
2019-02-09T08:03:37.645Z,6.80
2019-02-09T08:04:37.556Z,6.76
2019-02-09T08:05:37.470Z,6.69
2019-02-09T08:06:37.383Z,6.67
2019-02-09T08:07:37.295Z,6.59
2019-02-09T08:08:37.219Z,6.55
2019-02-09T08:09:37.139Z,6.54
2019-02-09T08:10:37.046Z,6.49
2019-02-09T08:11:36.957Z,6.55
2019-02-09T08:12:37.120Z,6.48
2019-02-09T08:13:36.782Z,6.48
2019-02-09T08:14:36.707Z,6.48
2019-02-09T08:15:36.626Z,6.51
2019-02-09T08:16:36.536Z,6.40
2019-02-09T08:17:36.446Z,6.41
2019-02-09T08:18:36.360Z,6.49
2019-02-09T08:19:36.271Z,6.46
2019-02-09T08:20:36.187Z,6.51
2019-02-09T08:21:36.108Z,6.51
2019-02-09T08:22:36.021Z,6.49
2019-02-09T08:23:35.933Z,6.46
2019-02-09T08:24:35.846Z,6.61
2019-02-09T08:25:35.761Z,6.58
2019-02-09T08:26:35.672Z,6.73
2019-02-09T08:27:35.585Z,6.81
2019-02-09T08:28:35.523Z,6.71
2019-02-09T08:29:35.425Z,6.84
2019-02-09T08:30:35.335Z,6.88
2019-02-09T08:31:35.257Z,6.91
2019-02-09T08:32:35.160Z,6.98
2019-02-09T08:33:35.076Z,6.98
2019-02-09T08:34:35.002Z,7.03
2019-02-09T08:35:34.922Z,7.05
2019-02-09T08:36:34.825Z,6.97
2019-02-09T08:37:34.735Z,7.13
2019-02-09T08:38:34.648Z,7.12
2019-02-09T08:39:34.560Z,7.13
2019-02-09T08:40:34.486Z,7.23
2019-02-09T08:41:34.399Z,7.30
2019-02-09T08:42:34.313Z,7.32
2019-02-09T08:43:34.226Z,7.32
2019-02-09T08:44:34.136Z,7.31
2019-02-09T08:45:34.061Z,7.30
2019-02-09T08:46:33.974Z,7.32
2019-02-09T08:47:33.886Z,7.34
2019-02-09T08:48:33.800Z,7.57
2019-02-09T08:49:33.711Z,7.43
2019-02-09T08:50:33.650Z,7.45
2019-02-09T08:51:33.550Z,7.39
2019-02-09T08:52:33.461Z,7.45
2019-02-09T08:53:33.376Z,7.48
2019-02-09T08:54:33.286Z,7.49
2019-02-09T08:55:33.200Z,7.60
2019-02-09T08:56:33.125Z,7.57
2019-02-09T08:57:33.037Z,7.60
2019-02-09T08:58:32.950Z,7.75
2019-02-09T08:59:32.862Z,7.72
2019-02-09T09:00:32.776Z,7.87
2019-02-09T09:01:32.701Z,8.15
2019-02-09T09:02:32.613Z,8.50
2019-02-09T09:03:32.532Z,8.76
2019-02-09T09:04:32.438Z,8.95
2019-02-09T09:05:32.363Z,9.05
2019-02-09T09:06:32.278Z,9.08
2019-02-09T09:07:32.201Z,9.02
2019-02-09T09:08:32.102Z,9.01
2019-02-09T09:09:32.014Z,8.94
2019-02-09T09:10:31.938Z,9.02
2019-02-09T09:11:31.855Z,9.05
2019-02-09T09:12:31.765Z,9.08
2019-02-09T09:13:31.677Z,9.05
2019-02-09T09:14:31.602Z,9.29
2019-02-09T09:15:31.514Z,9.60
2019-02-09T09:16:31.427Z,9.72
2019-02-09T09:17:31.340Z,9.65
2019-02-09T09:18:31.264Z,9.40
2019-02-09T09:19:31.177Z,9.10
2019-02-09T09:20:31.089Z,9.01
2019-02-09T09:21:31.028Z,8.92
2019-02-09T09:22:30.927Z,8.83
2019-02-09T09:23:30.846Z,8.86
2019-02-09T09:24:30.753Z,8.77
2019-02-09T09:25:30.683Z,8.71
2019-02-09T09:26:30.590Z,8.95
2019-02-09T09:27:30.503Z,9.05
2019-02-09T09:28:30.428Z,9.48
2019-02-09T09:29:30.340Z,9.58
2019-02-09T09:30:30.257Z,10.05
2019-02-09T09:31:30.181Z,9.78
2019-02-09T09:32:30.090Z,9.74
2019-02-09T09:33:30.010Z,9.61
2019-02-09T09:34:29.917Z,9.51
2019-02-09T09:35:29.841Z,9.48
2019-02-09T09:36:29.755Z,9.60
2019-02-09T09:37:29.930Z,9.54
2019-02-09T09:38:29.592Z,9.57
2019-02-09T09:39:29.508Z,9.53
2019-02-09T09:40:29.419Z,9.46
2019-02-09T09:41:29.330Z,9.40
2019-02-09T09:42:29.255Z,9.42
2019-02-09T09:43:29.170Z,9.43
2019-02-09T09:44:29.082Z,9.43
2019-02-09T09:45:29.005Z,9.42
2019-02-09T09:46:28.924Z,9.47
2019-02-09T09:47:28.830Z,9.33
2019-02-09T09:48:28.756Z,9.46
2019-02-09T09:49:28.668Z,9.31
2019-02-09T09:50:28.580Z,9.42
2019-02-09T09:51:28.507Z,9.43
2019-02-09T09:52:28.417Z,9.58
2019-02-09T09:53:28.331Z,9.74
2019-02-09T09:54:28.256Z,9.97
2019-02-09T09:55:28.168Z,9.94
2019-02-09T09:56:28.082Z,10.02
2019-02-09T09:57:28.244Z,10.05
2019-02-09T09:58:27.918Z,10.02
2019-02-09T09:59:27.833Z,10.04
2019-02-09T10:00:27.743Z,10.07
2019-02-09T10:01:27.669Z,9.97
2019-02-09T10:02:27.584Z,9.89
2019-02-09T10:03:27.493Z,9.99
2019-02-09T10:04:27.420Z,10.04
2019-02-09T10:05:27.332Z,10.07
2019-02-09T10:06:27.244Z,10.17
2019-02-09T10:07:27.181Z,10.23
2019-02-09T10:08:27.082Z,10.27
2019-02-09T10:09:26.994Z,10.30
2019-02-09T10:10:26.923Z,10.34
2019-02-09T10:11:26.832Z,10.41
2019-02-09T10:12:26.746Z,10.53
2019-02-09T10:13:26.670Z,10.63
2019-02-09T10:14:26.583Z,10.67
2019-02-09T10:15:26.509Z,10.73
2019-02-09T10:16:26.420Z,10.61
2019-02-09T10:17:26.333Z,10.79
2019-02-09T10:18:26.247Z,10.86
2019-02-09T10:19:26.170Z,10.86
2019-02-09T10:20:26.084Z,10.89
2019-02-09T10:21:26.000Z,10.91
2019-02-09T10:22:25.921Z,10.88
2019-02-09T10:23:25.834Z,11.14
2019-02-09T10:24:25.766Z,10.99
2019-02-09T10:25:25.684Z,11.15
2019-02-09T10:26:25.592Z,11.11
2019-02-09T10:27:25.510Z,11.17
2019-02-09T10:28:25.421Z,11.27
2019-02-09T10:29:25.335Z,11.32
2019-02-09T10:30:25.260Z,11.44
2019-02-09T10:31:25.171Z,11.64
2019-02-09T10:32:25.086Z,11.51
2019-02-09T10:33:25.010Z,11.57
2019-02-09T10:34:24.925Z,11.57
2019-02-09T10:35:24.847Z,11.51
2019-02-09T10:36:24.761Z,11.62
2019-02-09T10:37:24.922Z,11.65
2019-02-09T10:38:24.597Z,11.73
2019-02-09T10:39:24.512Z,11.70
2019-02-09T10:40:24.438Z,11.79
2019-02-09T10:41:24.348Z,11.80
2019-02-09T10:42:24.262Z,11.76
2019-02-09T10:43:24.191Z,11.82
2019-02-09T10:44:24.098Z,11.96
2019-02-09T10:45:24.025Z,11.96
2019-02-09T10:46:23.937Z,11.94
2019-02-09T10:47:23.848Z,11.96
2019-02-09T10:48:23.786Z,12.02
2019-02-09T10:49:23.687Z,12.32
2019-02-09T10:50:23.612Z,12.34
2019-02-09T10:51:23.525Z,12.16
2019-02-09T10:52:23.450Z,11.98
2019-02-09T10:53:23.362Z,11.96
2019-02-09T10:54:23.275Z,12.27
2019-02-09T10:55:23.203Z,12.83
2019-02-09T10:56:23.113Z,13.30
2019-02-09T10:57:23.288Z,13.49
2019-02-09T10:58:22.951Z,13.57
2019-02-09T10:59:22.877Z,13.59
2019-02-09T11:00:22.789Z,13.95
2019-02-09T11:01:22.700Z,14.09
2019-02-09T11:02:22.625Z,13.95
2019-02-09T11:03:22.538Z,13.32
2019-02-09T11:04:22.464Z,13.78
2019-02-09T11:05:22.388Z,13.97
2019-02-09T11:06:22.300Z,13.67
2019-02-09T11:07:22.214Z,13.45
2019-02-09T11:08:22.139Z,13.82
2019-02-09T11:09:22.052Z,13.73
2019-02-09T11:10:21.977Z,13.14
2019-02-09T11:11:21.889Z,12.86
2019-02-09T11:12:21.813Z,12.96
2019-02-09T11:13:21.726Z,13.05
2019-02-09T11:14:21.655Z,12.77
2019-02-09T11:15:21.565Z,13.26
2019-02-09T11:16:21.501Z,13.26
2019-02-09T11:17:21.408Z,13.10
2019-02-09T11:18:21.327Z,12.49
2019-02-09T11:19:21.240Z,12.64
2019-02-09T11:20:21.153Z,12.41
2019-02-09T11:21:21.078Z,12.37
2019-02-09T11:22:21.002Z,12.32
2019-02-09T11:23:20.917Z,12.34
2019-02-09T11:24:20.828Z,12.16
2019-02-09T11:25:20.752Z,12.17
2019-02-09T11:26:20.690Z,12.37
2019-02-09T11:27:20.591Z,12.65
2019-02-09T11:28:20.503Z,12.59
2019-02-09T11:29:20.428Z,12.65
2019-02-09T11:30:20.344Z,12.71
2019-02-09T11:31:20.272Z,12.67
2019-02-09T11:32:20.180Z,12.70
2019-02-09T11:33:20.104Z,12.86
2019-02-09T11:34:20.016Z,12.50
2019-02-09T11:35:19.942Z,12.42
2019-02-09T11:36:19.854Z,12.54
2019-02-09T11:37:19.792Z,12.60
2019-02-09T11:38:19.693Z,12.56
2019-02-09T11:39:19.618Z,12.53
2019-02-09T11:40:19.529Z,12.35
2019-02-09T11:41:20.024Z,12.32
2019-02-09T11:42:19.369Z,12.28
2019-02-09T11:43:19.962Z,12.19
2019-02-09T11:44:19.206Z,11.94
2019-02-09T11:45:19.130Z,12.05
2019-02-09T11:46:19.043Z,12.02
2019-02-09T11:47:18.970Z,11.96
2019-02-09T11:48:18.881Z,11.91
2019-02-09T11:49:18.805Z,11.95
2019-02-09T11:50:18.720Z,12.01
2019-02-09T11:51:18.705Z,12.16
2019-02-09T11:52:18.555Z,12.10
2019-02-09T11:53:18.482Z,12.05
2019-02-09T11:54:18.397Z,12.34
2019-02-09T11:55:18.323Z,13.57
2019-02-09T11:56:18.232Z,14.33
2019-02-09T11:57:18.156Z,14.68
2019-02-09T11:58:18.071Z,15.14
2019-02-09T11:59:17.995Z,14.06
2019-02-09T12:00:17.906Z,13.60
2019-02-09T12:01:17.834Z,13.52
2019-02-09T12:02:17.994Z,14.02
2019-02-09T12:03:18.235Z,13.41
2019-02-09T12:04:17.582Z,13.36
2019-02-09T12:05:17.507Z,13.70
2019-02-09T12:06:17.432Z,13.29
2019-02-09T12:07:17.345Z,12.87
2019-02-09T12:08:17.259Z,12.71
2019-02-09T12:09:17.194Z,12.28
2019-02-09T12:10:17.108Z,12.21
2019-02-09T12:11:17.020Z,11.98
2019-02-09T12:12:16.945Z,12.01
2019-02-09T12:13:16.858Z,12.02
2019-02-09T12:14:16.782Z,11.95
2019-02-09T12:15:16.695Z,11.98
2019-02-09T12:16:16.623Z,11.94
2019-02-09T12:17:16.537Z,11.91
2019-02-09T12:18:16.460Z,11.94
2019-02-09T12:19:16.374Z,11.88
2019-02-09T12:20:16.301Z,11.90
2019-02-09T12:21:16.208Z,11.79
2019-02-09T12:22:16.139Z,11.80
2019-02-09T12:23:16.046Z,11.78
2019-02-09T12:24:15.972Z,11.61
2019-02-09T12:25:15.884Z,12.01
2019-02-09T12:26:15.809Z,12.12
2019-02-09T12:27:15.722Z,12.09
2019-02-09T12:28:15.635Z,11.70
2019-02-09T12:29:15.572Z,12.57
2019-02-09T12:30:15.472Z,13.33
2019-02-09T12:31:15.397Z,13.99
2019-02-09T12:32:15.311Z,14.64
2019-02-09T12:33:22.761Z,14.69
2019-02-09T12:34:15.147Z,14.88
2019-02-09T12:35:15.075Z,14.29
2019-02-09T12:36:14.985Z,14.55
2019-02-09T12:37:15.176Z,14.92
2019-02-09T12:38:14.823Z,15.16
2019-02-09T12:39:14.750Z,15.28
2019-02-09T12:40:14.661Z,15.74
2019-02-09T12:41:14.585Z,16.07
2019-02-09T12:42:14.512Z,15.69
2019-02-09T12:43:14.424Z,14.83
2019-02-09T12:44:14.353Z,14.36
2019-02-09T12:45:14.261Z,14.68
2019-02-09T12:46:14.186Z,14.64
2019-02-09T12:47:14.113Z,14.14
2019-02-09T12:48:14.024Z,13.67
2019-02-09T12:49:13.950Z,13.45
2019-02-09T12:50:13.862Z,14.24
2019-02-09T12:51:13.786Z,13.95
2019-02-09T12:52:13.715Z,14.62
2019-02-09T12:53:13.624Z,15.14
2019-02-09T12:54:13.597Z,15.44
2019-02-09T12:55:13.463Z,15.16
2019-02-09T12:56:13.388Z,14.95
2019-02-09T12:57:13.312Z,15.01
2019-02-09T12:58:13.226Z,15.07
2019-02-09T12:59:14.944Z,14.91
2019-02-09T13:00:13.079Z,15.16
2019-02-09T13:01:12.988Z,14.54
2019-02-09T13:02:12.912Z,14.91
2019-02-09T13:03:12.837Z,15.11
2019-02-09T13:04:12.751Z,14.99
2019-02-09T13:05:12.676Z,14.06
2019-02-09T13:06:12.601Z,13.38
2019-02-09T13:07:12.514Z,13.17
2019-02-09T13:08:12.439Z,13.01
2019-02-09T13:09:12.353Z,12.68
2019-02-09T13:10:12.277Z,12.41
2019-02-09T13:11:12.202Z,12.34